Time;durP1;ratioP1;P1;durP2;ratioP2;P2;SDS_P1;SDS_P2;PMS_P1;PMS_P2;Temp;Humidity;BMP_temperature;BMP_pressure;BME280_temperature;BME280_humidity;BME280_pressure;Samples;Min_cycle;Max_cycle;Signal;HPM_P1;HPM_P2
2024/04/23 00:01:25;;;;;;;5.27;2.53;;;4.60;71.00;;;;;;5419567;26;20411;-77
2024/04/23 00:03:52;;;;;;;5.23;2.10;;;4.60;71.10;;;;;;5419690;26;20011;-78
2024/04/23 00:06:18;;;;;;;4.63;2.23;;;4.60;71.00;;;;;;5419859;26;19999;-77
2024/04/23 00:08:43;;;;;;;4.90;2.10;;;4.60;71.10;;;;;;5419005;26;20075;-77
2024/04/23 00:11:09;;;;;;;3.93;1.70;;;4.50;71.20;;;;;;5419728;26;19999;-77
2024/04/23 00:13:35;;;;;;;6.30;2.17;;;4.50;71.20;;;;;;5419566;26;20000;-77
2024/04/23 00:16:00;;;;;;;6.07;2.80;;;4.50;71.30;;;;;;5419253;26;20096;-77
2024/04/23 00:18:26;;;;;;;7.43;2.37;;;4.40;71.50;;;;;;5447649;26;20084;-77
2024/04/23 00:20:55;;;;;;;7.73;3.20;;;4.40;72.70;;;;;;5447682;26;20045;-77
2024/04/23 00:23:23;;;;;;;6.53;2.40;;;4.40;72.20;;;;;;5447645;26;20000;-77
2024/04/23 00:25:49;;;;;;;6.13;2.37;;;4.40;72.00;;;;;;5419721;26;19996;-77
2024/04/23 00:28:14;;;;;;;5.23;2.13;;;4.40;72.20;;;;;;5419479;26;20047;-77
2024/04/23 00:30:40;;;;;;;6.20;2.57;;;4.30;72.20;;;;;;5419024;26;20011;-77
2024/04/23 00:33:06;;;;;;;4.57;1.97;;;4.30;72.40;;;;;;5419335;26;20000;-78
2024/04/23 00:35:35;;;;;;;5.37;2.27;;;4.30;72.50;;;;;;5419298;26;20011;-77
2024/04/23 00:38:01;;;;;;;5.37;2.20;;;4.30;72.60;;;;;;5418108;26;20010;-78
2024/04/23 00:40:30;;;;;;;4.67;1.97;;;4.30;72.70;;;;;;5417564;26;20000;-78
2024/04/23 00:42:56;;;;;;;4.23;2.27;;;4.30;73.20;;;;;;5419125;26;20018;-78
2024/04/23 00:45:31;;;;;;;6.53;1.80;;;4.20;73.30;;;;;;5447209;26;20007;-77
2024/04/23 00:47:57;;;;;;;5.23;2.30;;;4.20;73.30;;;;;;5419579;26;20065;-77
2024/04/23 00:50:24;;;;;;;6.13;2.70;;;4.40;73.80;;;;;;5419172;26;20328;-78
2024/04/23 00:52:50;;;;;;;5.27;3.00;;;4.20;73.70;;;;;;5419004;26;20068;-77
2024/04/23 00:55:16;;;;;;;5.17;2.33;;;4.20;73.50;;;;;;5419517;26;20007;-77
2024/04/23 00:57:43;;;;;;;8.17;2.90;;;4.30;74.60;;;;;;5418850;26;19995;-77
2024/04/23 01:00:09;;;;;;;5.70;2.70;;;4.20;74.30;;;;;;5418930;26;20004;-76
2024/04/23 01:02:35;;;;;;;5.20;2.83;;;4.20;74.10;;;;;;5418653;26;19996;-77
2024/04/23 01:05:01;;;;;;;6.07;3.03;;;4.20;74.30;;;;;;5446868;26;20003;-76
2024/04/23 01:07:26;;;;;;;7.87;2.87;;;4.20;74.30;;;;;;5446962;26;20019;-77
2024/04/23 01:09:52;;;;;;;5.00;2.47;;;4.20;74.20;;;;;;5418583;26;20455;-76
2024/04/23 01:12:17;;;;;;;5.83;2.87;;;4.10;74.40;;;;;;5418364;26;20346;-77
2024/04/23 01:14:44;;;;;;;5.33;3.00;;;4.20;74.40;;;;;;5418904;26;20014;-77
2024/04/23 01:17:11;;;;;;;4.67;2.53;;;4.10;74.40;;;;;;5418993;26;20010;-77
2024/04/23 01:19:42;;;;;;;7.07;3.40;;;4.10;74.70;;;;;;5446870;26;20010;-77
2024/04/23 01:22:12;;;;;;;9.47;2.97;;;4.10;75.00;;;;;;5447025;26;19996;-77
2024/04/23 01:25:03;;;;;;;6.10;2.97;;;4.10;75.60;;;;;;5446601;26;20439;-77
2024/04/23 01:27:32;;;;;;;6.83;3.23;;;4.10;75.70;;;;;;5418452;26;20395;-78
2024/04/23 01:29:59;;;;;;;6.30;3.10;;;4.10;76.20;;;;;;5446778;26;20011;-77
2024/04/23 01:32:27;;;;;;;5.90;2.70;;;4.00;76.00;;;;;;5418563;26;20018;-78
2024/04/23 01:34:54;;;;;;;5.80;2.53;;;4.10;75.70;;;;;;5418505;26;20000;-78
2024/04/23 01:37:21;;;;;;;6.13;2.90;;;4.10;75.60;;;;;;5418495;26;20027;-79
2024/04/23 01:39:47;;;;;;;5.27;2.20;;;4.00;75.50;;;;;;5418156;26;20032;-78
2024/04/23 01:42:13;;;;;;;5.53;2.67;;;4.00;75.60;;;;;;5418322;26;20343;-77
2024/04/23 01:44:41;;;;;;;5.87;2.23;;;4.10;75.80;;;;;;5416423;26;20003;-78
2024/04/23 01:47:06;;;;;;;7.23;3.10;;;4.00;76.00;;;;;;5418532;26;19999;-77
2024/04/23 01:49:33;;;;;;;7.33;3.80;;;4.00;76.60;;;;;;5417979;26;20014;-77
2024/04/23 01:51:59;;;;;;;8.77;3.30;;;3.90;76.10;;;;;;5446561;26;19996;-77
2024/04/23 01:54:25;;;;;;;8.80;3.50;;;4.00;76.10;;;;;;5446337;26;20356;-77
2024/04/23 01:56:51;;;;;;;6.27;3.30;;;3.90;76.20;;;;;;5418383;26;20046;-77
2024/04/23 01:59:16;;;;;;;8.03;3.30;;;3.80;76.70;;;;;;5418196;26;20015;-77
2024/04/23 02:01:47;;;;;;;7.47;3.77;;;3.90;76.60;;;;;;5445949;26;20011;-77
2024/04/23 02:04:13;;;;;;;8.73;3.87;;;3.90;76.80;;;;;;5417910;26;20320;-77
2024/04/23 02:06:42;;;;;;;7.73;4.27;;;3.90;77.00;;;;;;5418102;26;20003;-77
2024/04/23 02:09:08;;;;;;;10.03;3.63;;;3.90;77.00;;;;;;5417709;26;20007;-77
2024/04/23 02:11:34;;;;;;;9.13;4.30;;;3.90;77.20;;;;;;5415699;26;20328;-77
2024/04/23 02:14:00;;;;;;;8.17;4.40;;;3.90;77.70;;;;;;5418116;26;20007;-78
2024/04/23 02:16:25;;;;;;;6.03;3.57;;;3.80;77.50;;;;;;5418059;26;20046;-78
2024/04/23 02:18:51;;;;;;;8.47;4.27;;;3.80;77.60;;;;;;5418111;26;19995;-78
2024/04/23 02:21:16;;;;;;;7.97;3.87;;;3.80;77.30;;;;;;5418127;26;19995;-78
2024/04/23 02:23:42;;;;;;;9.83;4.70;;;3.80;77.60;;;;;;5417428;26;19995;-78
2024/04/23 02:26:08;;;;;;;7.80;4.10;;;3.70;77.40;;;;;;5417675;26;20501;-78
2024/04/23 02:28:33;;;;;;;7.37;3.80;;;3.80;78.00;;;;;;5417881;26;20093;-78
2024/04/23 02:30:59;;;;;;;7.40;3.97;;;3.80;77.70;;;;;;5417665;26;20007;-78
2024/04/23 02:33:24;;;;;;;7.03;3.80;;;3.70;77.70;;;;;;5417584;26;20031;-78
2024/04/23 02:35:50;;;;;;;7.20;4.13;;;3.70;77.60;;;;;;5417778;26;20010;-78
2024/04/23 02:38:16;;;;;;;8.07;4.23;;;3.70;77.70;;;;;;5417405;26;20013;-78
2024/04/23 02:40:42;;;;;;;6.83;3.80;;;3.70;78.10;;;;;;5417494;26;20007;-78
2024/04/23 02:43:07;;;;;;;8.37;4.13;;;3.70;78.20;;;;;;5418440;26;20018;-78
2024/04/23 02:45:33;;;;;;;7.93;3.97;;;3.70;78.10;;;;;;5417357;26;19999;-78
2024/04/23 02:47:59;;;;;;;7.63;4.43;;;3.70;78.30;;;;;;5417519;26;20015;-78
2024/04/23 02:50:25;;;;;;;8.23;4.30;;;3.60;78.30;;;;;;5417743;26;20002;-77
2024/04/23 02:52:51;;;;;;;10.33;5.73;;;3.60;78.30;;;;;;5445430;26;20014;-77
2024/04/23 02:55:16;;;;;;;7.27;3.97;;;3.60;78.50;;;;;;5445011;26;20006;-78
2024/04/23 02:57:42;;;;;;;8.23;4.30;;;3.60;78.80;;;;;;5417364;26;19995;-78
2024/04/23 03:00:08;;;;;;;7.40;4.60;;;3.60;79.50;;;;;;5416262;26;19996;-78
2024/04/23 03:02:34;;;;;;;7.80;3.87;;;3.60;78.90;;;;;;5417558;26;20010;-78
2024/04/23 03:04:59;;;;;;;8.80;4.53;;;3.50;78.80;;;;;;5417131;26;19999;-78
2024/04/23 03:07:25;;;;;;;8.60;4.00;;;3.50;78.90;;;;;;5445084;26;20007;-78
2024/04/23 03:09:51;;;;;;;10.13;5.63;;;3.50;78.90;;;;;;5416159;26;20351;-78
2024/04/23 03:12:16;;;;;;;7.30;3.93;;;3.50;79.00;;;;;;5416907;26;20015;-78
2024/04/23 03:14:42;;;;;;;6.97;3.50;;;3.40;79.10;;;;;;5417064;26;20015;-78
2024/04/23 03:17:08;;;;;;;11.83;4.83;;;3.40;79.20;;;;;;5417099;26;19995;-78
2024/04/23 03:19:33;;;;;;;8.87;4.87;;;3.40;79.30;;;;;;5414947;26;20413;-78
2024/04/23 03:21:59;;;;;;;8.60;5.23;;;3.30;79.30;;;;;;5416603;26;19999;-78
2024/04/23 03:24:25;;;;;;;10.73;5.13;;;3.30;79.40;;;;;;5414718;26;20003;-78
2024/04/23 03:26:50;;;;;;;11.90;5.03;;;3.30;79.50;;;;;;5417181;26;19999;-78
2024/04/23 03:29:17;;;;;;;9.27;4.93;;;3.30;79.60;;;;;;5416811;26;20072;-78
2024/04/23 03:31:46;;;;;;;9.73;5.50;;;3.20;79.70;;;;;;5416802;26;20011;-78
2024/04/23 03:34:14;;;;;;;10.37;5.80;;;3.30;80.40;;;;;;5416881;26;20007;-78
2024/04/23 03:36:39;;;;;;;9.90;4.93;;;3.20;80.60;;;;;;5416193;26;19995;-78
2024/04/23 03:39:05;;;;;;;7.83;4.60;;;3.20;80.20;;;;;;5416384;26;20007;-78
2024/04/23 03:41:31;;;;;;;10.40;4.57;;;3.10;80.20;;;;;;5416412;26;20466;-78
2024/04/23 03:43:56;;;;;;;10.77;5.50;;;3.10;80.20;;;;;;5416738;26;20452;-78
2024/04/23 03:46:22;;;;;;;10.23;5.27;;;3.10;80.30;;;;;;5414847;26;20010;-78
2024/04/23 03:48:48;;;;;;;8.93;4.67;;;3.10;80.60;;;;;;5416204;26;20046;-78
2024/04/23 03:51:13;;;;;;;9.17;4.50;;;3.00;80.80;;;;;;5416322;26;20153;-79
2024/04/23 03:53:39;;;;;;;10.53;5.70;;;3.10;81.40;;;;;;5444252;26;20000;-78
2024/04/23 03:56:05;;;;;;;9.67;5.40;;;3.10;81.30;;;;;;5416482;26;20004;-78
2024/04/23 03:58:30;;;;;;;8.27;4.77;;;3.10;81.20;;;;;;5416374;26;20020;-78
2024/04/23 04:01:00;;;;;;;10.03;5.23;;;3.10;81.30;;;;;;5416134;26;19997;-79
2024/04/23 04:06:11;;;;;;;10.75;5.63;;;3.10;81.30;;;;;;5416163;26;20461;-78
2024/04/23 04:08:40;;;;;;;11.47;5.50;;;3.00;81.30;;;;;;5416597;26;20003;-78
2024/04/23 04:11:06;;;;;;;11.63;5.00;;;3.00;81.20;;;;;;5444943;26;20448;-78
2024/04/23 04:13:32;;;;;;;10.03;4.90;;;3.10;81.30;;;;;;5446239;26;20072;-78
2024/04/23 04:15:59;;;;;;;10.20;5.03;;;3.00;81.30;;;;;;5419700;26;20000;-78
2024/04/23 04:18:24;;;;;;;10.67;5.60;;;3.00;81.50;;;;;;5419610;26;20459;-78
2024/04/23 04:20:50;;;;;;;9.70;5.83;;;3.00;81.60;;;;;;5419421;26;20018;-78
2024/04/23 04:23:16;;;;;;;10.70;5.80;;;2.90;81.60;;;;;;5419165;26;20474;-78
2024/04/23 04:25:42;;;;;;;10.30;5.63;;;2.90;81.80;;;;;;5419573;26;20343;-78
2024/04/23 04:28:08;;;;;;;9.37;4.97;;;2.90;81.90;;;;;;5419423;26;20014;-78
2024/04/23 04:30:34;;;;;;;11.17;6.00;;;2.90;82.00;;;;;;5419322;26;20011;-78
2024/04/23 04:33:00;;;;;;;12.73;6.20;;;2.90;82.00;;;;;;5447689;26;20067;-78
2024/04/23 04:35:26;;;;;;;10.40;5.97;;;2.90;82.10;;;;;;5419209;26;20007;-78
2024/04/23 04:37:52;;;;;;;11.80;5.63;;;2.90;82.10;;;;;;5447353;26;20007;-78
2024/04/23 04:40:17;;;;;;;9.93;5.43;;;2.90;82.20;;;;;;5419305;26;20000;-78
2024/04/23 04:42:43;;;;;;;13.33;6.03;;;3.00;82.40;;;;;;5419668;26;20000;-78
2024/04/23 04:45:10;;;;;;;12.83;6.37;;;2.80;82.50;;;;;;5418857;26;20003;-78
2024/04/23 04:47:35;;;;;;;11.70;5.70;;;2.80;82.70;;;;;;5419280;26;20440;-78
2024/04/23 04:50:01;;;;;;;10.97;6.10;;;2.90;82.90;;;;;;5447114;26;20005;-78
2024/04/23 04:52:27;;;;;;;13.20;6.23;;;2.80;83.00;;;;;;5419424;26;20065;-79
2024/04/23 04:54:52;;;;;;;11.10;6.10;;;2.90;83.10;;;;;;5446784;26;20516;-79
2024/04/23 04:57:18;;;;;;;14.33;6.90;;;2.90;83.30;;;;;;5447127;26;19995;-78
2024/04/23 04:59:44;;;;;;;11.87;6.70;;;2.90;83.40;;;;;;5418950;26;20424;-78
2024/04/23 05:02:09;;;;;;;14.63;6.73;;;2.90;83.50;;;;;;5417086;26;20000;-78
2024/04/23 05:04:35;;;;;;;11.60;6.47;;;3.00;83.50;;;;;;5418004;26;20072;-79
2024/04/23 05:07:00;;;;;;;16.30;6.90;;;3.00;83.80;;;;;;5417039;26;19995;-78
2024/04/23 05:09:26;;;;;;;15.03;7.00;;;3.00;83.80;;;;;;5446132;26;20018;-78
2024/04/23 05:11:51;;;;;;;12.23;6.07;;;3.00;83.80;;;;;;5418828;26;20451;-78
2024/04/23 05:14:18;;;;;;;12.77;6.77;;;3.20;83.90;;;;;;5418193;26;19995;-78
2024/04/23 05:16:44;;;;;;;15.23;7.07;;;3.20;83.80;;;;;;5422846;26;19995;-78
2024/04/23 05:19:10;;;;;;;17.27;7.13;;;3.10;83.80;;;;;;5466340;26;20009;-78
2024/04/23 05:21:36;;;;;;;12.03;7.50;;;3.20;83.90;;;;;;5418069;26;20000;-78
2024/04/23 05:24:03;;;;;;;12.73;6.60;;;3.20;84.00;;;;;;5416965;26;20000;-78
2024/04/23 05:26:29;;;;;;;10.27;6.00;;;3.30;84.20;;;;;;5412876;26;20366;-78
2024/04/23 05:28:55;;;;;;;11.57;7.00;;;3.30;84.20;;;;;;5416562;26;19995;-79
2024/04/23 05:34:04;;;;;;;11.52;6.65;;;3.40;84.50;;;;;;5418489;26;20069;-78
2024/04/23 05:36:30;;;;;;;13.10;6.93;;;3.40;84.60;;;;;;5418675;26;20007;-78
2024/04/23 05:38:56;;;;;;;12.07;7.23;;;3.40;84.70;;;;;;5418325;26;20010;-79
2024/04/23 05:41:22;;;;;;;10.90;6.77;;;3.50;84.90;;;;;;5418277;26;20011;-80
2024/04/23 05:43:47;;;;;;;12.97;6.77;;;3.60;84.90;;;;;;5418291;26;20065;-80
2024/04/23 05:46:13;;;;;;;11.53;6.90;;;3.60;85.20;;;;;;5418609;26;20007;-80
2024/04/23 05:49:18;;;;;;;11.47;7.00;;;3.60;85.30;;;;;;5416137;26;20080;-79
2024/04/23 05:52:21;;;;;;;14.63;8.05;;;3.70;85.20;;;;;;5418261;26;20466;-79
2024/04/23 05:55:24;;;;;;;10.67;6.30;;;3.70;85.40;;;;;;5446037;26;19999;-79
2024/04/23 05:57:51;;;;;;;15.50;6.87;;;3.70;85.30;;;;;;5418347;26;20459;-78
2024/04/23 06:00:18;;;;;;;12.20;7.67;;;3.80;85.20;;;;;;5445928;26;20072;-81
2024/04/23 06:02:44;;;;;;;14.13;6.63;;;3.80;85.30;;;;;;5415898;26;20011;-82
2024/04/23 06:05:13;;;;;;;12.17;7.07;;;3.80;85.30;;;;;;5386479;26;20385;-83
2024/04/23 06:07:39;;;;;;;12.97;7.13;;;3.90;85.50;;;;;;5411536;26;20000;-83
2024/04/23 06:10:05;;;;;;;13.30;7.67;;;3.90;85.50;;;;;;5418344;26;20096;-82
2024/04/23 06:12:31;;;;;;;13.20;6.93;;;4.00;85.60;;;;;;5418031;26;20011;-83
2024/04/23 06:15:02;;;;;;;10.60;6.67;;;4.00;85.60;;;;;;5415876;26;19991;-83
2024/04/23 06:17:29;;;;;;;11.20;6.83;;;4.00;86.30;;;;;;5417358;26;20393;-82
2024/04/23 06:19:55;;;;;;;10.97;6.67;;;4.00;85.70;;;;;;5415515;26;20005;-82
2024/04/23 06:22:26;;;;;;;11.37;7.43;;;4.10;85.80;;;;;;5415698;26;20003;-82
2024/04/23 06:24:52;;;;;;;12.20;7.33;;;4.10;85.90;;;;;;5417688;26;20481;-82
2024/04/23 06:27:25;;;;;;;10.17;6.60;;;4.30;86.10;;;;;;5415377;26;19999;-82
2024/04/23 06:29:52;;;;;;;13.10;6.67;;;4.20;86.10;;;;;;5417516;26;20342;-82
2024/04/23 06:32:18;;;;;;;15.33;7.43;;;4.30;86.20;;;;;;5417169;26;20036;-80
2024/04/23 06:34:45;;;;;;;13.60;8.30;;;4.30;86.20;;;;;;5417225;26;20321;-80
2024/04/23 06:37:11;;;;;;;14.07;7.83;;;4.40;86.40;;;;;;5416892;26;19995;-81
2024/04/23 06:39:37;;;;;;;13.57;7.87;;;4.50;86.50;;;;;;5417964;26;20004;-82
2024/04/23 06:42:04;;;;;;;13.10;7.87;;;4.50;86.40;;;;;;5417565;26;20050;-81
2024/04/23 06:44:31;;;;;;;12.77;8.33;;;4.60;86.50;;;;;;5437675;26;20004;-81
2024/04/23 06:46:57;;;;;;;13.17;8.37;;;4.60;86.50;;;;;;5409404;26;20023;-81
2024/04/23 06:49:24;;;;;;;13.03;8.20;;;4.60;86.50;;;;;;5381686;26;20004;-82
2024/04/23 06:51:50;;;;;;;12.27;7.53;;;4.70;86.60;;;;;;5409952;26;20010;-82
2024/04/23 06:54:16;;;;;;;11.23;6.97;;;4.70;86.60;;;;;;5382098;26;20000;-81
2024/04/23 06:56:42;;;;;;;12.77;7.53;;;4.80;86.70;;;;;;5381847;26;20012;-81
2024/04/23 06:59:08;;;;;;;12.70;8.30;;;4.80;86.80;;;;;;5409800;26;20000;-81
2024/04/23 07:01:35;;;;;;;12.57;7.30;;;4.90;86.70;;;;;;5382193;26;20000;-81
2024/04/23 07:04:00;;;;;;;11.77;7.50;;;4.90;87.30;;;;;;5381778;26;20011;-82
2024/04/23 07:06:26;;;;;;;12.73;8.00;;;4.90;86.70;;;;;;5381768;26;20004;-81
2024/04/23 07:08:52;;;;;;;11.70;7.33;;;5.00;86.70;;;;;;5381209;26;20344;-80
2024/04/23 07:11:18;;;;;;;11.47;7.23;;;5.00;86.70;;;;;;5379740;26;20004;-81
2024/04/23 07:13:46;;;;;;;12.73;7.57;;;5.10;86.70;;;;;;5409165;26;20016;-81
2024/04/23 07:16:12;;;;;;;12.30;7.17;;;5.10;87.30;;;;;;5381351;26;20448;-81
2024/04/23 07:18:39;;;;;;;11.80;7.33;;;5.20;86.80;;;;;;5381664;26;20000;-82
2024/04/23 07:21:07;;;;;;;11.73;7.23;;;5.30;86.90;;;;;;5380802;26;20015;-82
2024/04/23 07:23:33;;;;;;;13.00;8.03;;;5.30;86.90;;;;;;5408907;26;19997;-82
2024/04/23 07:25:59;;;;;;;12.80;6.93;;;5.40;86.90;;;;;;5409113;26;20007;-83
2024/04/23 07:28:25;;;;;;;10.97;6.97;;;5.40;86.80;;;;;;5381078;26;20015;-82
2024/04/23 07:30:52;;;;;;;12.77;7.33;;;5.50;86.80;;;;;;5408899;26;19996;-83
2024/04/23 07:33:18;;;;;;;10.60;7.03;;;5.60;86.80;;;;;;5409127;26;20011;-82
2024/04/23 07:35:45;;;;;;;11.63;7.57;;;5.60;86.80;;;;;;5381449;26;20067;-83
2024/04/23 07:38:11;;;;;;;11.40;7.07;;;5.60;86.80;;;;;;5381195;26;20015;-81
2024/04/23 07:40:37;;;;;;;13.53;7.00;;;5.80;86.80;;;;;;5379485;26;20001;-82
2024/04/23 07:43:03;;;;;;;10.53;6.33;;;5.80;86.80;;;;;;5408065;26;20041;-82
2024/04/23 07:45:30;;;;;;;9.57;6.33;;;5.90;86.70;;;;;;5380890;26;20472;-80
2024/04/23 07:47:56;;;;;;;11.50;7.00;;;6.00;86.60;;;;;;5383758;26;20069;-82
2024/04/23 07:50:23;;;;;;;9.93;6.33;;;6.00;86.90;;;;;;5412577;26;20004;-82
2024/04/23 07:52:48;;;;;;;8.70;5.73;;;6.10;86.10;;;;;;5382539;26;20074;-81
2024/04/23 07:55:14;;;;;;;11.97;6.30;;;6.20;86.00;;;;;;5384225;26;20335;-81
2024/04/23 07:57:43;;;;;;;9.00;5.30;;;6.20;85.60;;;;;;5412104;26;20000;-82
2024/04/23 08:00:10;;;;;;;10.57;5.90;;;6.30;85.40;;;;;;5384555;26;20077;-82
2024/04/23 08:02:35;;;;;;;9.83;5.60;;;6.40;85.20;;;;;;5412178;26;20078;-82
2024/04/23 08:05:01;;;;;;;9.03;5.90;;;6.40;85.00;;;;;;5411962;26;20016;-81
2024/04/23 08:07:27;;;;;;;10.40;5.63;;;6.50;84.90;;;;;;5382271;26;20007;-80
2024/04/23 08:09:52;;;;;;;12.97;6.30;;;6.60;84.80;;;;;;5383849;26;20011;-81
2024/04/23 08:12:18;;;;;;;9.77;5.50;;;6.70;84.60;;;;;;5383827;26;20525;-82
2024/04/23 08:14:44;;;;;;;9.03;5.07;;;6.70;84.30;;;;;;5382460;26;19996;-81
2024/04/23 08:17:09;;;;;;;9.13;5.23;;;6.80;84.10;;;;;;5382285;26;20454;-80
2024/04/23 08:19:37;;;;;;;8.60;5.17;;;6.90;83.90;;;;;;5384173;26;20008;-80
2024/04/23 08:22:02;;;;;;;10.30;5.50;;;6.90;83.20;;;;;;5383963;26;20004;-82
2024/04/23 08:24:28;;;;;;;8.53;4.87;;;7.00;83.00;;;;;;5383915;26;20708;-81
2024/04/23 08:26:54;;;;;;;7.17;4.40;;;7.10;82.80;;;;;;5384532;26;20000;-81
2024/04/23 08:29:19;;;;;;;7.47;4.27;;;7.10;82.50;;;;;;5385593;26;20467;-80
2024/04/23 08:31:45;;;;;;;9.13;4.30;;;7.20;82.00;;;;;;5384295;26;19996;-81
2024/04/23 08:34:12;;;;;;;7.60;3.97;;;7.20;81.20;;;;;;5384057;26;19996;-81
2024/04/23 08:36:38;;;;;;;7.33;4.00;;;7.30;81.20;;;;;;5383846;26;20000;-82
2024/04/23 08:39:04;;;;;;;8.83;4.20;;;7.50;81.10;;;;;;5384024;26;20337;-81
2024/04/23 08:41:35;;;;;;;7.00;3.53;;;7.40;80.80;;;;;;5383552;26;20073;-81
2024/04/23 08:44:09;;;;;;;7.43;3.90;;;7.40;80.60;;;;;;5411393;26;20325;-81
2024/04/23 08:46:36;;;;;;;7.70;4.40;;;7.60;80.60;;;;;;5383585;26;20004;-81
2024/04/23 08:49:05;;;;;;;7.63;4.03;;;7.70;80.30;;;;;;5383701;26;20000;-80
2024/04/23 08:51:33;;;;;;;7.00;3.60;;;7.80;79.70;;;;;;5383652;26;20000;-83
2024/04/23 08:53:59;;;;;;;8.20;4.10;;;7.90;79.40;;;;;;5383801;26;20000;-83
2024/04/23 08:56:33;;;;;;;6.97;3.67;;;7.90;76.60;;;;;;5383739;26;20000;-80
2024/04/23 08:58:59;;;;;;;;;;;8.00;76.60;;;;;;5383307;26;20107;-81
2024/04/23 09:01:30;;;;;;;6.73;3.17;;;8.10;76.70;;;;;;5383401;26;19955;-82
2024/04/23 09:03:57;;;;;;;8.57;3.47;;;8.20;77.10;;;;;;5411244;26;20333;-82
2024/04/23 09:06:25;;;;;;;6.53;3.07;;;8.20;77.00;;;;;;5383308;26;20314;-81
2024/04/23 09:08:51;;;;;;;5.23;2.83;;;8.30;77.10;;;;;;5383027;26;20467;-82
2024/04/23 09:11:17;;;;;;;6.67;3.50;;;8.40;77.00;;;;;;5411049;26;20011;-81
2024/04/23 09:13:43;;;;;;;5.37;3.07;;;8.60;76.80;;;;;;5381661;26;20012;-81
2024/04/23 09:16:09;;;;;;;6.03;3.57;;;8.60;76.90;;;;;;5383258;26;20409;-81
2024/04/23 09:18:35;;;;;;;5.67;2.80;;;8.70;74.70;;;;;;5383475;26;20441;-80
2024/04/23 09:21:04;;;;;;;6.13;3.13;;;8.80;74.50;;;;;;5383308;26;20011;-81
2024/04/23 09:23:33;;;;;;;6.13;3.30;;;8.80;73.70;;;;;;5383462;26;20000;-82
2024/04/23 09:26:00;;;;;;;7.23;3.20;;;8.90;73.80;;;;;;5382940;26;20047;-82
2024/04/23 09:28:26;;;;;;;4.77;2.17;;;9.00;73.20;;;;;;5383078;26;20444;-79
2024/04/23 09:30:52;;;;;;;6.70;3.13;;;9.10;72.80;;;;;;5381501;26;20492;-81
2024/04/23 09:33:26;;;;;;;5.27;2.70;;;9.20;71.80;;;;;;5411470;26;20452;-81
2024/04/23 09:36:03;;;;;;;5.70;3.33;;;9.30;71.30;;;;;;5381764;26;19996;-82
2024/04/23 09:38:37;;;;;;;7.67;3.13;;;9.50;70.60;;;;;;5383871;26;20008;-83
2024/04/23 09:41:08;;;;;;;7.43;3.17;;;9.70;69.70;;;;;;5383446;26;20000;-83
2024/04/23 09:43:38;;;;;;;4.50;2.30;;;9.80;68.90;;;;;;5383054;26;20004;-83
2024/04/23 09:46:05;;;;;;;5.70;2.77;;;9.80;68.30;;;;;;5383012;26;20032;-81
2024/04/23 09:48:31;;;;;;;4.80;2.57;;;9.90;68.40;;;;;;5380783;26;20011;-83
2024/04/23 09:51:05;;;;;;;5.70;2.40;;;10.10;68.80;;;;;;5382839;26;20028;-82
2024/04/23 09:53:36;;;;;;;6.15;3.20;;;10.20;67.10;;;;;;5411205;26;20025;-83
2024/04/23 09:56:04;;;;;;;3.47;1.65;;;10.30;67.00;;;;;;5383213;26;20472;-83
2024/04/23 09:58:54;;;;;;;4.32;2.33;;;10.40;67.00;;;;;;5382506;26;20015;-82
2024/04/23 10:01:27;;;;;;;4.97;2.60;;;10.50;66.20;;;;;;5385374;26;20007;-83
2024/04/23 10:03:59;;;;;;;5.57;3.15;;;10.60;65.80;;;;;;5415207;26;20011;-81
2024/04/23 10:06:26;;;;;;;4.95;2.97;;;10.80;65.40;;;;;;5415223;26;20027;-80
2024/04/23 10:09:17;;;;;;;4.13;2.28;;;10.90;65.50;;;;;;5414358;26;20013;-79
2024/04/23 10:12:05;;;;;;;4.63;2.75;;;11.10;65.60;;;;;;5413463;26;19999;-81
2024/04/23 10:14:58;;;;;;;6.63;2.80;;;11.10;64.10;;;;;;5414873;26;20008;-79
2024/04/23 10:17:32;;;;;;;7.97;3.38;;;11.10;63.40;;;;;;5414880;26;20010;-79
2024/04/23 10:20:02;;;;;;;5.93;3.28;;;11.10;62.60;;;;;;5414728;26;20030;-79
2024/04/23 10:22:31;;;;;;;5.85;3.38;;;11.10;62.30;;;;;;5414279;26;20043;-81
2024/04/23 10:24:57;;;;;;;6.28;3.42;;;11.00;62.40;;;;;;5414042;26;20425;-83
2024/04/23 10:27:24;;;;;;;7.13;4.13;;;11.00;62.10;;;;;;5414115;26;20064;-80
2024/04/23 10:29:52;;;;;;;7.82;4.25;;;11.10;61.70;;;;;;5384652;26;20019;-82
2024/04/23 10:32:20;;;;;;;8.02;4.07;;;11.10;61.90;;;;;;5379857;26;20030;-80
2024/04/23 10:34:47;;;;;;;6.68;3.78;;;11.00;61.70;;;;;;5382453;26;20015;-81
2024/04/23 10:37:15;;;;;;;6.43;3.60;;;11.00;61.90;;;;;;5381903;26;20079;-79
2024/04/23 10:39:41;;;;;;;7.07;3.88;;;10.90;61.60;;;;;;5409393;26;20044;-76
2024/04/23 10:42:07;;;;;;;7.38;3.75;;;11.00;61.50;;;;;;5382512;26;20011;-79
2024/04/23 10:44:35;;;;;;;6.22;3.65;;;11.00;60.60;;;;;;5409930;26;20008;-79
2024/04/23 10:47:00;;;;;;;6.95;4.03;;;11.00;60.70;;;;;;5382032;26;20012;-79
2024/04/23 10:49:26;;;;;;;7.32;4.18;;;11.00;61.30;;;;;;5381540;26;20070;-79
2024/04/23 10:51:55;;;;;;;6.18;3.60;;;11.10;60.70;;;;;;5409571;26;20010;-82
2024/04/23 10:54:22;;;;;;;5.85;3.45;;;11.20;61.40;;;;;;5381851;26;20073;-81
2024/04/23 10:56:58;;;;;;;4.85;2.60;;;11.50;61.80;;;;;;5381933;26;20000;-83
2024/04/23 10:59:30;;;;;;;3.33;2.03;;;12.00;62.50;;;;;;5382085;26;20004;-82
2024/04/23 11:02:05;;;;;;;4.90;2.50;;;12.70;62.50;;;;;;5381595;26;20377;-81
2024/04/23 11:04:42;;;;;;;6.50;2.05;;;13.50;62.60;;;;;;5381467;26;20467;-81
2024/04/23 11:07:09;;;;;;;2.67;1.67;;;14.40;61.80;;;;;;5381632;26;20007;-81
2024/04/23 11:09:38;;;;;;;4.15;1.98;;;15.50;61.80;;;;;;5379658;26;20448;-81
2024/04/23 11:12:25;;;;;;;4.35;1.60;;;16.40;60.40;;;;;;5409551;26;20011;-80
2024/04/23 11:14:52;;;;;;;3.70;1.52;;;17.50;59.20;;;;;;5409240;26;19996;-80
2024/04/23 11:17:19;;;;;;;5.88;2.83;;;17.80;57.70;;;;;;5381950;26;20468;-81
2024/04/23 11:19:51;;;;;;;5.35;2.40;;;17.60;53.90;;;;;;5381844;26;20011;-79
2024/04/23 11:22:23;;;;;;;3.72;2.13;;;17.00;51.20;;;;;;5383519;26;20014;-80
2024/04/23 11:24:53;;;;;;;4.93;2.75;;;16.50;51.20;;;;;;5384764;26;20046;-81
2024/04/23 11:27:21;;;;;;;8.15;3.33;;;16.00;49.80;;;;;;5412651;26;20004;-81
2024/04/23 11:29:48;;;;;;;5.03;2.10;;;16.00;50.80;;;;;;5412640;26;20001;-82
2024/04/23 11:32:15;;;;;;;5.00;2.60;;;16.40;51.60;;;;;;5385179;26;20037;-81
2024/04/23 11:35:07;;;;;;;4.57;1.67;;;16.80;50.80;;;;;;5412435;26;20471;-84
2024/04/23 11:37:34;;;;;;;3.83;1.83;;;17.30;50.70;;;;;;5416968;26;20000;-81
2024/04/23 11:40:00;;;;;;;4.03;1.83;;;18.10;51.20;;;;;;5417132;26;20489;-78
2024/04/23 11:42:27;;;;;;;4.28;1.92;;;18.80;50.00;;;;;;5417052;26;20003;-81
2024/04/23 11:45:00;;;;;;;4.40;2.00;;;19.40;48.90;;;;;;5387213;26;20000;-83
2024/04/23 11:47:27;;;;;;;5.27;1.67;;;19.90;48.10;;;;;;5386991;26;20004;-79
2024/04/23 11:49:53;;;;;;;3.83;1.45;;;20.50;46.30;;;;;;5416616;26;20233;-81
2024/04/23 11:52:21;;;;;;;3.65;1.75;;;20.60;45.40;;;;;;5416743;26;20015;-82
2024/04/23 11:54:48;;;;;;;3.17;1.45;;;20.20;44.10;;;;;;5387185;26;19998;-79
2024/04/23 11:57:15;;;;;;;2.35;1.20;;;19.70;43.80;;;;;;5416874;26;20007;-82
2024/04/23 11:59:45;;;;;;;3.40;1.45;;;19.20;42.70;;;;;;5386698;26;20460;-80
2024/04/23 12:02:11;;;;;;;3.55;1.80;;;18.80;42.20;;;;;;5416957;26;20077;-82
2024/04/23 12:04:37;;;;;;;3.30;1.48;;;18.60;42.20;;;;;;5386728;26;20034;-82
2024/04/23 12:07:05;;;;;;;2.90;1.73;;;18.30;42.00;;;;;;5416326;26;20116;-80
2024/04/23 12:09:34;;;;;;;4.38;1.58;;;18.20;41.70;;;;;;5416437;26;20003;-79
2024/04/23 12:11:59;;;;;;;4.45;1.38;;;18.10;42.20;;;;;;5417056;26;20483;-78
2024/04/23 12:14:26;;;;;;;2.90;1.58;;;18.50;42.50;;;;;;5416520;26;20062;-80
2024/04/23 12:16:52;;;;;;;3.95;1.23;;;19.10;43.00;;;;;;5416444;26;20093;-78
2024/04/23 12:19:17;;;;;;;4.35;1.30;;;19.80;43.10;;;;;;5416278;26;20007;-80
2024/04/23 12:21:44;;;;;;;2.60;1.15;;;20.40;42.90;;;;;;5395840;26;19993;-81
2024/04/23 12:24:17;;;;;;;5.40;1.50;;;21.00;41.90;;;;;;5417585;26;20068;-78
2024/04/23 12:26:44;;;;;;;2.22;0.90;;;21.40;40.20;;;;;;5417808;26;20007;-82
2024/04/23 12:29:10;;;;;;;3.60;1.20;;;21.60;39.70;;;;;;5419101;26;20014;-77
2024/04/23 12:31:37;;;;;;;3.15;1.27;;;21.30;39.30;;;;;;5418773;26;20003;-78
2024/04/23 12:34:03;;;;;;;4.25;1.25;;;20.80;38.50;;;;;;5418217;26;20027;-79
2024/04/23 12:36:28;;;;;;;3.60;1.30;;;20.30;39.20;;;;;;5419443;26;20776;-81
2024/04/23 12:38:54;;;;;;;3.35;1.45;;;20.20;39.50;;;;;;5417265;26;20335;-77
2024/04/23 12:41:21;;;;;;;4.80;1.80;;;20.20;39.10;;;;;;5418798;26;20014;-80
2024/04/23 12:43:48;;;;;;;3.85;1.90;;;20.00;38.70;;;;;;5418858;26;20027;-77
2024/04/23 12:46:15;;;;;;;4.43;1.52;;;19.50;38.20;;;;;;5447579;26;19999;-83
2024/04/23 12:48:42;;;;;;;4.75;1.33;;;19.10;39.10;;;;;;5419256;26;20457;-79
2024/04/23 12:51:08;;;;;;;4.40;1.45;;;19.10;39.30;;;;;;5416380;26;19999;-79
2024/04/23 12:53:34;;;;;;;3.17;1.48;;;19.00;39.30;;;;;;5418217;26;19995;-78
2024/04/23 12:55:59;;;;;;;4.70;1.25;;;18.70;39.50;;;;;;5418299;26;20000;-78
2024/04/23 12:58:26;;;;;;;3.78;1.02;;;18.70;39.90;;;;;;5418140;26;20072;-79